Jefferson, Wisconsin
Current Conditions -  °F | °C
As of 4:55 AM on Wednesday 22 Oct 2014 (Local Time) from KRYV Reporting Station
Haze Haze  
Wind Chill: 26°   Ceiling: 200
Heat Index: 26°   Visibility: 1.7mi
Dew Point: 25°   Wind: 0mph
Humidity: 98%   Direction: NA
Pressure: 30.31"   Gusts: NA
Location:  43°N, 88.81°W
Report Text: KRYV 220955Z AUTO 00000KT 1 3/4SM BR BKN002 M03/M04 A3031 RMK AO2 T10351038
Loading
Personal Weather Stations






























Interactive Weather Map New forecast layout! Learn more

10-Day Weather Forecast

Advertisements
Track Severe Weather on mobile